Easton, New York
Current Conditions -  °F | °C
As of 1:51 AM on Sunday 21 Dec 2014 (Local Time) from KALB Reporting Station
Light Snow Light Snow  
Wind Chill: 28°   Ceiling: 2300
Heat Index: 28°   Visibility: 9mi
Dew Point: 20°   Wind: 3mph
Humidity: 72%   Direction: 340°NNW
Pressure: 30.32"   Gusts: NA
Location:  42.934°N, 73.6082°W
Report Text: KALB 210651Z 34003KT 9SM -SN OVC023 M02/M07 A3032 RMK AO2 SNB48 SLP270 PCPN VRY LGT P0000 T10221067
Loading
Personal Weather Stations






























Interactive Weather Map New forecast layout! Learn more

10-Day Weather Forecast

Advertisements
Track Severe Weather on mobile